EDLV

Niederrhein Airport

Weeze, Germany
METAR EDLV 241120Z 30007KT 250V360 9999 -SHRA BKN078TCU 12/07 Q1034
Observed Flight Rules
Sep-24 @ 11:20 UTC (11 minutes ago) Visual Flight Rules
Wind Visibility Clouds Conditions
300° at 7 knots 10,000+ meters
  • Broken at 7,800' AGL
  • Light Rain
Temperatures Readings
Current 12°C / 54°F
Dewpoint 7°C / 45°F
Humidity 72%
Altimeter 30.53" Hg
Pressure 1034 hPa
Elevation 32
METAR EDLV 241120Z 30007KT 250V360 9999 -SHRA BKN078TCU 12/07 Q1034
Observed Flight Rules
Sep-24 @ 11:20 UTC
(11 minutes ago)
VFR
Wind Visibility
300° at 7 knots 10,000+ meters
Clouds
  • Broken at 7,800' AGL
Conditions
  • Light Rain
Temperature Dewpoint
12°C / 54°F 7°C / 45°F
Humidity Altimeter Pressure
72% 30.53" Hg 1034 hPa